Astatula, Florida
Current Conditions -  °F | °C
As of 10:53 PM on Monday 20 Oct 2014 (Local Time) from KLEE Reporting Station
Clear Clear  
Wind Chill: 74°   Ceiling: Unl
Heat Index: 74°   Visibility: 10mi
Dew Point: 68°   Wind: 5mph
Humidity: 82%   Direction: 80°E
Pressure: 30"   Gusts: NA
Location:  28.71°N, 81.73°W
Report Text: KLEE 210253Z AUTO 08004KT 10SM CLR 23/20 A3000 RMK AO2 SLP157 T02330200 52006
Loading
Personal Weather Stations






























Interactive Weather Map
Tropical Storm Tracking
New forecast layout! Learn more

10-Day Weather Forecast

Advertisements
Track Severe Weather on mobile